Time;durP1;ratioP1;P1;durP2;ratioP2;P2;SDS_P1;SDS_P2;PMS_P1;PMS_P2;Temp;Humidity;BMP_temperature;BMP_pressure;BME280_temperature;BME280_humidity;BME280_pressure;Samples;Min_cycle;Max_cycle;Signal;HPM_P1;HPM_P2
2023/12/22 00:00:43;;;;;;;0.20;0.20;;;;;;;2.11;100.00;94978.91;6132454;23;20021;-77
2023/12/22 00:03:29;;;;;;;0.30;0.30;;;;;;;2.11;100.00;94972.81;6135020;23;20025;-79
2023/12/22 00:06:15;;;;;;;0.30;0.30;;;;;;;2.10;100.00;94964.09;6134785;23;20104;-78
2023/12/22 00:09:01;;;;;;;0.20;0.20;;;;;;;2.16;100.00;94965.78;6133395;23;20018;-78
2023/12/22 00:11:47;;;;;;;0.20;0.20;;;;;;;2.14;100.00;94973.16;6136209;23;20123;-79
2023/12/22 00:14:33;;;;;;;0.15;0.15;;;;;;;2.13;100.00;94966.25;6133212;23;20029;-78
2023/12/22 00:17:19;;;;;;;0.20;0.20;;;;;;;2.12;100.00;94987.63;6135284;23;20091;-78
2023/12/22 00:20:05;;;;;;;0.20;0.20;;;;;;;1.91;100.00;94984.53;6134612;23;20026;-77
2023/12/22 00:22:51;;;;;;;0.30;0.30;;;;;;;1.73;100.00;95023.41;6134876;23;20017;-77
2023/12/22 00:25:37;;;;;;;0.20;0.20;;;;;;;1.54;100.00;95027.94;6134450;23;20025;-77
2023/12/22 00:28:23;;;;;;;0.22;0.20;;;;;;;1.30;100.00;95009.44;6130853;23;20067;-78
2023/12/22 00:31:09;;;;;;;0.20;0.20;;;;;;;1.16;100.00;95021.19;6132660;23;20029;-78
2023/12/22 00:33:55;;;;;;;0.30;0.30;;;;;;;1.13;100.00;95029.56;6132846;23;20032;-78
2023/12/22 00:36:43;;;;;;;0.38;0.30;;;;;;;1.07;100.00;95038.34;6133591;23;20699;-77
2023/12/22 00:39:29;;;;;;;0.20;0.20;;;;;;;0.96;100.00;95041.75;6132313;23;20025;-77
2023/12/22 00:42:15;;;;;;;0.30;0.30;;;;;;;0.86;100.00;95038.81;6135613;23;20075;-77
2023/12/22 00:45:01;;;;;;;0.20;0.20;;;;;;;0.88;100.00;95047.31;6133088;23;20104;-78
2023/12/22 00:47:47;;;;;;;0.20;0.20;;;;;;;0.74;100.00;95055.38;6134318;23;20079;-78
2023/12/22 00:50:33;;;;;;;0.20;0.20;;;;;;;0.67;100.00;95051.22;6133641;23;20057;-78
2023/12/22 00:53:19;;;;;;;0.32;0.30;;;;;;;0.66;100.00;95055.69;6132388;23;20025;-78
2023/12/22 00:56:06;;;;;;;0.20;0.20;;;;;;;0.70;100.00;95067.41;6134089;23;20436;-78
2023/12/22 00:58:51;;;;;;;0.20;0.20;;;;;;;0.64;100.00;95084.06;6134747;23;20037;-78
2023/12/22 01:01:37;;;;;;;0.20;0.20;;;;;;;0.53;100.00;95080.31;6131425;23;20029;-78
2023/12/22 01:04:23;;;;;;;0.30;0.30;;;;;;;0.48;100.00;95082.81;6132839;23;20523;-78
2023/12/22 01:07:10;;;;;;;0.20;0.20;;;;;;;0.46;100.00;95081.41;6134130;23;20033;-78
2023/12/22 01:10:01;;;;;;;0.20;0.20;;;;;;;0.47;100.00;95096.22;6135237;23;20401;-78
2023/12/22 01:12:47;;;;;;;0.15;0.15;;;;;;;0.48;100.00;95103.06;6133408;23;20025;-78
2023/12/22 01:15:32;;;;;;;0.20;0.20;;;;;;;0.46;100.00;95078.78;6133592;23;20506;-78
2023/12/22 01:18:18;;;;;;;0.20;0.20;;;;;;;0.48;100.00;95087.28;6137310;23;20501;-78
2023/12/22 01:21:04;;;;;;;0.20;0.20;;;;;;;0.54;100.00;95063.53;6134897;23;20022;-78
2023/12/22 01:23:50;;;;;;;0.20;0.20;;;;;;;0.54;100.00;95073.22;6134747;23;20128;-78
2023/12/22 01:26:36;;;;;;;0.20;0.20;;;;;;;0.50;100.00;95062.34;6136489;23;20021;-78
2023/12/22 01:29:22;;;;;;;0.20;0.20;;;;;;;0.58;100.00;95071.78;6135303;23;20077;-78
2023/12/22 01:32:08;;;;;;;0.20;0.20;;;;;;;0.57;100.00;95072.81;6135266;23;20022;-78
2023/12/22 01:34:53;;;;;;;0.20;0.20;;;;;;;0.63;100.00;95077.19;6135004;23;20029;-78
2023/12/22 01:37:39;;;;;;;0.20;0.20;;;;;;;0.69;100.00;95092.09;6134934;23;20684;-78
2023/12/22 01:40:26;;;;;;;0.20;0.20;;;;;;;0.71;100.00;95074.28;6138317;23;20052;-79
2023/12/22 01:43:13;;;;;;;0.20;0.20;;;;;;;0.81;100.00;95087.72;6137475;23;20117;-78
2023/12/22 01:46:00;;;;;;;0.30;0.30;;;;;;;0.81;100.00;95076.38;6137415;23;20043;-78
2023/12/22 01:48:46;;;;;;;0.20;0.20;;;;;;;0.80;100.00;95086.09;6136241;23;20056;-78
2023/12/22 01:51:35;;;;;;;0.20;0.20;;;;;;;0.83;100.00;95087.50;6136765;23;20480;-78
2023/12/22 01:54:21;;;;;;;0.20;0.20;;;;;;;0.84;100.00;95103.06;6136083;23;20025;-77
2023/12/22 01:57:07;;;;;;;0.20;0.20;;;;;;;0.89;100.00;95085.81;6137196;23;20527;-78
2023/12/22 01:59:53;;;;;;;0.20;0.20;;;;;;;0.91;100.00;95091.66;6136916;23;20356;-78
2023/12/22 02:02:42;;;;;;;0.25;0.25;;;;;;;0.87;100.00;95085.22;6135897;23;20617;-77
2023/12/22 02:05:29;;;;;;;0.20;0.20;;;;;;;0.84;100.00;95097.78;6137804;23;20064;-78
2023/12/22 02:08:18;;;;;;;0.20;0.20;;;;;;;0.93;100.00;95105.41;6137362;23;20024;-78
2023/12/22 02:11:04;;;;;;;0.22;0.22;;;;;;;0.98;100.00;95084.47;6136092;23;20034;-77
2023/12/22 02:13:50;;;;;;;0.20;0.20;;;;;;;1.00;100.00;95098.22;6134949;23;20125;-78
2023/12/22 02:17:11;;;;;;;0.20;0.20;;;;;;;1.06;100.00;95094.72;6136686;23;20092;-77
2023/12/22 02:19:58;;;;;;;0.20;0.20;;;;;;;1.11;100.00;95084.31;6134919;23;20025;-77
2023/12/22 02:22:44;;;;;;;0.20;0.20;;;;;;;1.15;100.00;95088.09;6135821;23;20025;-77
2023/12/22 02:25:30;;;;;;;0.20;0.20;;;;;;;1.18;100.00;95079.78;6135276;23;20598;-77
2023/12/22 02:28:19;;;;;;;0.20;0.20;;;;;;;1.17;100.00;95075.53;6135117;23;20100;-78
2023/12/22 02:31:08;;;;;;;0.20;0.20;;;;;;;1.20;100.00;95098.78;6135047;23;20052;-77
2023/12/22 02:33:56;;;;;;;0.20;0.20;;;;;;;1.19;100.00;95083.19;6135363;23;20025;-77
2023/12/22 02:36:43;;;;;;;0.20;0.20;;;;;;;1.16;100.00;95084.44;6134189;23;20021;-77
2023/12/22 02:39:29;;;;;;;0.30;0.30;;;;;;;1.17;100.00;95085.22;6135268;23;20037;-77
2023/12/22 02:42:16;;;;;;;0.20;0.20;;;;;;;1.13;100.00;95087.53;6136522;23;20025;-77
2023/12/22 02:45:03;;;;;;;0.20;0.20;;;;;;;1.09;100.00;95078.47;6136245;23;20099;-78
2023/12/22 02:47:49;;;;;;;0.20;0.20;;;;;;;1.10;100.00;95075.63;6135875;23;20044;-78
2023/12/22 02:50:35;;;;;;;0.20;0.20;;;;;;;1.15;100.00;95087.28;6135289;23;20488;-78
2023/12/22 02:53:21;;;;;;;0.20;0.20;;;;;;;1.20;100.00;95093.50;6134200;23;20021;-78
2023/12/22 02:56:07;;;;;;;0.30;0.30;;;;;;;1.20;100.00;95087.44;6134119;23;20026;-78
2023/12/22 02:58:53;;;;;;;0.30;0.30;;;;;;;1.26;100.00;95089.19;6135427;23;20053;-78
2023/12/22 03:01:38;;;;;;;0.20;0.20;;;;;;;1.29;100.00;95078.19;6135292;23;20025;-78
2023/12/22 03:04:24;;;;;;;0.22;0.22;;;;;;;1.31;100.00;95063.75;6134193;23;20025;-77
2023/12/22 03:07:10;;;;;;;0.28;0.28;;;;;;;1.38;100.00;95064.47;6135209;23;20017;-77
2023/12/22 03:09:56;;;;;;;0.20;0.20;;;;;;;1.41;100.00;95057.97;6135490;23;20022;-78
2023/12/22 03:12:42;;;;;;;0.30;0.30;;;;;;;1.45;100.00;95053.84;6135865;23;20022;-78
2023/12/22 03:15:28;;;;;;;0.30;0.30;;;;;;;1.52;100.00;95048.47;6135849;23;20025;-78
2023/12/22 03:18:14;;;;;;;0.20;0.20;;;;;;;1.55;100.00;95048.00;6133659;23;20029;-78
2023/12/22 03:20:59;;;;;;;0.20;0.20;;;;;;;1.62;100.00;95057.41;6133215;23;20029;-77
2023/12/22 03:23:46;;;;;;;0.20;0.20;;;;;;;1.62;100.00;95067.16;6132371;23;20032;-78
2023/12/22 03:26:31;;;;;;;0.20;0.20;;;;;;;1.62;100.00;95059.25;6133594;23;20037;-78
2023/12/22 03:29:18;;;;;;;0.20;0.20;;;;;;;1.54;100.00;95047.19;6135826;23;20023;-77
2023/12/22 03:32:04;;;;;;;0.30;0.30;;;;;;;1.45;100.00;95055.66;6133985;23;20033;-77
2023/12/22 03:34:50;;;;;;;0.30;0.30;;;;;;;1.37;100.00;95043.59;6133958;23;20076;-77
2023/12/22 03:37:36;;;;;;;0.20;0.20;;;;;;;1.39;100.00;95084.53;6134265;23;20426;-78
2023/12/22 03:40:22;;;;;;;0.20;0.20;;;;;;;1.46;100.00;95044.88;6133615;23;20021;-77
2023/12/22 03:43:07;;;;;;;0.20;0.20;;;;;;;1.48;100.00;95057.84;6133460;23;20341;-78
2023/12/22 03:45:53;;;;;;;0.20;0.20;;;;;;;1.52;100.00;95072.19;6133053;23;20096;-78
2023/12/22 03:48:39;;;;;;;0.20;0.20;;;;;;;1.49;100.00;95076.09;6135850;23;20419;-78
2023/12/22 03:51:25;;;;;;;0.20;0.20;;;;;;;1.50;100.00;95098.78;6134619;23;20040;-77
2023/12/22 03:54:11;;;;;;;0.20;0.20;;;;;;;1.42;100.00;95099.09;6134532;23;20037;-78
2023/12/22 03:56:57;;;;;;;0.20;0.20;;;;;;;1.43;100.00;95107.81;6136057;23;20033;-77
2023/12/22 03:59:43;;;;;;;0.10;0.10;;;;;;;1.37;100.00;95065.50;6133363;23;20240;-77
2023/12/22 04:02:29;;;;;;;0.20;0.20;;;;;;;1.42;100.00;95064.03;6132327;23;20649;-77
2023/12/22 04:05:15;;;;;;;0.20;0.20;;;;;;;1.44;100.00;95085.69;6135336;23;20838;-77
2023/12/22 04:08:01;;;;;;;0.20;0.20;;;;;;;1.44;100.00;95083.06;6133324;23;20025;-77
2023/12/22 04:10:47;;;;;;;0.20;0.20;;;;;;;1.49;100.00;95094.53;6134942;23;20764;-77
2023/12/22 04:13:33;;;;;;;0.20;0.20;;;;;;;1.41;100.00;95088.78;6135116;23;20026;-78
2023/12/22 04:16:19;;;;;;;0.30;0.30;;;;;;;1.47;100.00;95101.06;6134141;23;20025;-77
2023/12/22 04:19:05;;;;;;;0.20;0.20;;;;;;;1.47;100.00;95090.50;6133689;23;20459;-77
2023/12/22 04:21:51;;;;;;;0.30;0.30;;;;;;;1.48;100.00;95079.75;6135810;23;20538;-78
2023/12/22 04:24:37;;;;;;;0.30;0.30;;;;;;;1.50;100.00;95072.41;6133994;23;20121;-77
2023/12/22 04:27:23;;;;;;;0.20;0.20;;;;;;;1.45;100.00;95068.84;6133273;23;20108;-77
2023/12/22 04:30:09;;;;;;;0.30;0.30;;;;;;;1.53;100.00;95071.97;6133161;23;20025;-78
2023/12/22 04:32:56;;;;;;;0.30;0.30;;;;;;;1.65;100.00;95082.56;6133395;23;20105;-78
2023/12/22 04:35:41;;;;;;;0.30;0.30;;;;;;;1.67;100.00;95073.38;6135298;23;20029;-78
2023/12/22 04:38:27;;;;;;;0.30;0.30;;;;;;;1.76;100.00;95091.50;6135092;23;20826;-78
2023/12/22 04:41:13;;;;;;;0.20;0.20;;;;;;;1.79;100.00;95086.59;6134168;23;20087;-78
2023/12/22 04:44:03;;;;;;;0.25;0.25;;;;;;;1.81;100.00;95095.09;6135259;23;20108;-78
2023/12/22 04:46:49;;;;;;;0.30;0.30;;;;;;;1.82;100.00;95088.78;6134281;23;20021;-78
2023/12/22 04:49:35;;;;;;;0.30;0.30;;;;;;;1.92;100.00;95083.72;6134670;23;20021;-78
2023/12/22 04:52:21;;;;;;;0.28;0.28;;;;;;;2.00;100.00;95093.16;6135364;23;20542;-78
2023/12/22 04:55:06;;;;;;;0.20;0.20;;;;;;;2.04;100.00;95094.31;6132840;23;20026;-78
2023/12/22 04:57:52;;;;;;;0.30;0.30;;;;;;;1.96;100.00;95081.47;6132615;23;20021;-78
2023/12/22 05:00:41;;;;;;;0.20;0.20;;;;;;;1.92;100.00;95096.94;6131438;23;20017;-78
2023/12/22 05:03:27;;;;;;;0.22;0.22;;;;;;;1.72;100.00;95070.06;6134306;23;20045;-78
2023/12/22 05:06:12;;;;;;;0.20;0.20;;;;;;;1.61;100.00;95070.84;6135783;23;20021;-78
2023/12/22 05:08:58;;;;;;;0.20;0.20;;;;;;;1.62;100.00;95085.63;6136512;23;20025;-78
2023/12/22 05:11:44;;;;;;;0.20;0.20;;;;;;;1.66;100.00;95079.69;6136190;23;20033;-78
2023/12/22 05:14:33;;;;;;;0.20;0.20;;;;;;;1.71;100.00;95070.28;6135433;23;20025;-79
2023/12/22 05:17:19;;;;;;;0.15;0.15;;;;;;;1.80;100.00;95079.50;6135614;23;20018;-77
2023/12/22 05:20:05;;;;;;;0.30;0.30;;;;;;;1.82;100.00;95072.16;6134251;23;20022;-77
2023/12/22 05:22:51;;;;;;;0.20;0.20;;;;;;;1.84;100.00;95072.72;6135677;23;20045;-78
2023/12/22 05:25:37;;;;;;;0.20;0.20;;;;;;;1.86;100.00;95068.81;6135607;23;20052;-78
2023/12/22 05:28:23;;;;;;;0.30;0.30;;;;;;;1.88;100.00;95079.16;6134847;23;20104;-78
2023/12/22 05:31:09;;;;;;;0.20;0.20;;;;;;;1.89;100.00;95099.22;6136251;23;20030;-78
2023/12/22 05:33:55;;;;;;;0.20;0.20;;;;;;;1.80;100.00;95093.47;6136159;23;20495;-78
2023/12/22 05:36:41;;;;;;;0.30;0.30;;;;;;;1.61;100.00;95105.13;6134428;23;20018;-78
2023/12/22 05:39:26;;;;;;;0.30;0.30;;;;;;;1.41;100.00;95113.31;6134358;23;20026;-78
2023/12/22 05:42:12;;;;;;;0.20;0.20;;;;;;;1.28;100.00;95119.56;6134724;23;20815;-78
2023/12/22 05:44:58;;;;;;;0.30;0.30;;;;;;;1.22;100.00;95123.06;6136360;23;20057;-78
2023/12/22 05:47:46;;;;;;;0.15;0.15;;;;;;;1.23;100.00;95089.63;6135933;23;20025;-78
2023/12/22 05:50:32;;;;;;;0.30;0.30;;;;;;;1.37;100.00;95107.66;6136357;23;20025;-78
2023/12/22 05:53:18;;;;;;;0.30;0.30;;;;;;;1.39;100.00;95115.34;6133895;23;20021;-78
2023/12/22 05:56:04;;;;;;;0.30;0.30;;;;;;;1.49;100.00;95114.84;6135011;23;20025;-78
2023/12/22 05:58:50;;;;;;;0.20;0.20;;;;;;;1.58;100.00;95110.84;6136093;23;20021;-78
2023/12/22 06:01:36;;;;;;;0.30;0.30;;;;;;;1.70;100.00;95095.03;6134603;23;20021;-78
2023/12/22 06:04:22;;;;;;;0.20;0.20;;;;;;;1.76;100.00;95110.78;6133942;23;20029;-77
2023/12/22 06:07:10;;;;;;;0.22;0.22;;;;;;;1.89;100.00;95107.16;6134324;23;20108;-77
2023/12/22 06:09:56;;;;;;;0.20;0.20;;;;;;;2.14;100.00;95093.75;6137113;23;20040;-77
2023/12/22 06:12:44;;;;;;;0.25;0.25;;;;;;;2.26;100.00;95101.66;6139012;23;20590;-77
2023/12/22 06:15:30;;;;;;;0.25;0.25;;;;;;;2.33;100.00;95097.88;6136064;23;20026;-78
2023/12/22 06:18:16;;;;;;;0.20;0.20;;;;;;;2.40;100.00;95100.41;6138608;23;20337;-77
2023/12/22 06:21:02;;;;;;;0.30;0.30;;;;;;;2.46;100.00;95121.41;6137189;23;20053;-77
2023/12/22 06:23:48;;;;;;;0.20;0.20;;;;;;;2.51;100.00;95105.69;6138104;23;20100;-77
2023/12/22 06:26:34;;;;;;;0.20;0.20;;;;;;;2.56;100.00;95123.47;6135783;23;20029;-77
2023/12/22 06:29:20;;;;;;;0.20;0.20;;;;;;;2.63;100.00;95118.88;6137913;23;20037;-78
2023/12/22 06:32:06;;;;;;;0.20;0.20;;;;;;;2.66;100.00;95099.13;6137469;23;20137;-78
2023/12/22 06:34:51;;;;;;;0.22;0.22;;;;;;;2.67;100.00;95106.81;6136104;23;20033;-77
2023/12/22 06:37:37;;;;;;;0.20;0.20;;;;;;;2.65;100.00;95102.81;6135763;23;20022;-77
2023/12/22 06:40:23;;;;;;;0.30;0.30;;;;;;;2.69;100.00;95111.88;6134355;23;20711;-77
2023/12/22 06:43:09;;;;;;;0.25;0.25;;;;;;;2.70;100.00;95113.47;6138061;23;20026;-77
2023/12/22 06:45:55;;;;;;;0.20;0.20;;;;;;;2.74;100.00;95126.00;6137644;23;20049;-77
2023/12/22 06:48:41;;;;;;;0.20;0.20;;;;;;;2.77;100.00;95149.31;6137334;23;20041;-77
2023/12/22 06:51:34;;;;;;;0.20;0.20;;;;;;;2.78;100.00;95135.06;6138654;23;20022;-77
2023/12/22 06:54:20;;;;;;;0.20;0.20;;;;;;;2.78;100.00;95147.47;6136890;23;20668;-77
2023/12/22 06:57:06;;;;;;;0.20;0.20;;;;;;;2.83;100.00;95147.59;6138609;23;20022;-78
2023/12/22 06:59:52;;;;;;;0.30;0.30;;;;;;;2.82;100.00;95153.91;6137558;23;20025;-79
2023/12/22 07:02:38;;;;;;;0.20;0.20;;;;;;;2.84;100.00;95159.75;6137550;23;20032;-78
2023/12/22 07:05:31;;;;;;;0.20;0.20;;;;;;;2.87;100.00;95153.19;6136761;23;20088;-78
2023/12/22 07:08:17;;;;;;;0.20;0.20;;;;;;;2.89;100.00;95141.38;6136869;23;20463;-79
2023/12/22 07:11:02;;;;;;;0.20;0.20;;;;;;;2.91;100.00;95147.22;6136285;23;20029;-77
2023/12/22 07:13:48;;;;;;;0.30;0.30;;;;;;;2.90;100.00;95179.97;6135247;23;20064;-78
2023/12/22 07:16:36;;;;;;;0.20;0.20;;;;;;;2.96;100.00;95189.63;6135335;23;20513;-78
2023/12/22 07:19:22;;;;;;;0.20;0.20;;;;;;;2.98;100.00;95206.03;6133835;23;20027;-78
2023/12/22 07:22:08;;;;;;;0.20;0.20;;;;;;;2.96;100.00;95194.09;6136970;23;20021;-78
2023/12/22 07:24:55;;;;;;;0.22;0.20;;;;;;;3.01;100.00;95192.34;6136559;23;20030;-78
2023/12/22 07:27:41;;;;;;;0.20;0.20;;;;;;;3.02;100.00;95185.22;6137110;23;20022;-78
2023/12/22 07:30:27;;;;;;;0.22;0.22;;;;;;;3.04;100.00;95196.41;6134811;23;20026;-78
2023/12/22 07:33:12;;;;;;;0.30;0.30;;;;;;;3.06;100.00;95200.41;6135285;23;20057;-78
2023/12/22 07:35:59;;;;;;;0.20;0.20;;;;;;;3.08;100.00;95202.81;6133356;23;20025;-78
2023/12/22 07:38:44;;;;;;;0.20;0.20;;;;;;;3.08;100.00;95206.25;6131206;23;20025;-78
2023/12/22 07:41:30;;;;;;;0.20;0.20;;;;;;;3.09;100.00;95185.91;6136586;23;20028;-78
2023/12/22 07:44:16;;;;;;;0.20;0.20;;;;;;;3.11;100.00;95183.84;6135188;23;20055;-78
2023/12/22 07:47:02;;;;;;;0.20;0.20;;;;;;;3.16;100.00;95188.44;6103222;23;20018;-78
2023/12/22 07:49:49;;;;;;;0.20;0.20;;;;;;;3.18;100.00;95199.56;6137684;23;20467;-78
2023/12/22 07:52:39;;;;;;;0.20;0.20;;;;;;;3.22;100.00;95198.09;6136284;23;20213;-78
2023/12/22 07:55:25;;;;;;;0.20;0.20;;;;;;;3.20;100.00;95206.25;6135453;23;20080;-78
2023/12/22 07:58:11;;;;;;;0.20;0.20;;;;;;;3.19;100.00;95224.97;6137135;23;20848;-79
2023/12/22 08:00:58;;;;;;;0.20;0.20;;;;;;;3.19;100.00;95228.44;6135649;23;20021;-79
2023/12/22 08:03:44;;;;;;;0.20;0.20;;;;;;;3.15;100.00;95231.78;6136616;23;20692;-79
2023/12/22 08:06:30;;;;;;;0.20;0.20;;;;;;;3.09;100.00;95233.50;6135110;23;20030;-79
2023/12/22 08:09:16;;;;;;;0.20;0.20;;;;;;;3.02;100.00;95236.25;6133898;23;20025;-79
2023/12/22 08:12:02;;;;;;;0.17;0.17;;;;;;;2.95;100.00;95248.78;6135209;23;20558;-78
2023/12/22 08:14:48;;;;;;;0.20;0.20;;;;;;;2.87;100.00;95250.94;6135386;23;20037;-78
2023/12/22 08:17:36;;;;;;;0.20;0.20;;;;;;;2.89;100.00;95228.56;6136048;23;20733;-78
2023/12/22 08:20:22;;;;;;;0.20;0.20;;;;;;;2.85;100.00;95219.47;6135075;23;20025;-78
2023/12/22 08:23:08;;;;;;;0.20;0.20;;;;;;;2.86;100.00;95207.88;6134639;23;20025;-79
2023/12/22 08:25:54;;;;;;;0.10;0.10;;;;;;;2.89;100.00;95220.66;6136622;23;20067;-78
2023/12/22 08:28:39;;;;;;;0.30;0.30;;;;;;;2.90;100.00;95214.31;6133870;23;20440;-78
2023/12/22 08:31:25;;;;;;;0.20;0.20;;;;;;;2.84;100.00;95227.66;6109138;23;20057;-78
2023/12/22 08:34:11;;;;;;;0.20;0.20;;;;;;;2.82;100.00;95221.78;6135348;23;20053;-79
2023/12/22 08:36:57;;;;;;;0.28;0.28;;;;;;;2.73;100.00;95211.56;6135070;23;20026;-79
2023/12/22 08:39:46;;;;;;;0.30;0.30;;;;;;;2.75;100.00;95228.00;6136047;23;20055;-79
2023/12/22 08:42:32;;;;;;;0.30;0.30;;;;;;;2.78;100.00;95232.00;6136492;23;20128;-79
2023/12/22 08:45:17;;;;;;;0.20;0.20;;;;;;;2.72;100.00;95249.59;6136752;23;20196;-79
2023/12/22 08:48:07;;;;;;;0.10;0.10;;;;;;;2.73;100.00;95235.34;6134975;23;20025;-79
2023/12/22 08:50:53;;;;;;;0.20;0.20;;;;;;;2.72;100.00;95246.13;6136746;23;20029;-79
2023/12/22 08:53:39;;;;;;;0.15;0.15;;;;;;;2.68;100.00;95237.06;6135769;23;20080;-79
2023/12/22 08:56:26;;;;;;;0.20;0.20;;;;;;;2.69;100.00;95236.81;6136739;23;20508;-79
2023/12/22 08:59:12;;;;;;;0.20;0.20;;;;;;;2.78;100.00;95229.34;6137085;23;20735;-79
2023/12/22 09:02:00;;;;;;;0.20;0.20;;;;;;;2.87;100.00;95227.97;6137519;23;20022;-79
2023/12/22 09:04:46;;;;;;;0.20;0.20;;;;;;;2.94;100.00;95212.81;6136075;23;20022;-79
2023/12/22 09:07:32;;;;;;;0.20;0.20;;;;;;;3.01;100.00;95226.72;6134964;23;20400;-78
2023/12/22 09:10:19;;;;;;;0.17;0.17;;;;;;;3.09;100.00;95212.34;6135296;23;20104;-79
2023/12/22 09:13:07;;;;;;;0.20;0.20;;;;;;;3.13;100.00;95218.78;6135543;23;20028;-79
2023/12/22 09:15:53;;;;;;;0.20;0.20;;;;;;;3.15;100.00;95232.56;6134608;23;20025;-79
2023/12/22 09:18:39;;;;;;;0.20;0.20;;;;;;;3.21;100.00;95231.66;6136862;23;20445;-79
2023/12/22 09:21:25;;;;;;;0.20;0.20;;;;;;;3.15;100.00;95207.97;6134160;23;20032;-79
2023/12/22 09:24:12;;;;;;;0.20;0.20;;;;;;;3.19;100.00;95243.47;6136266;23;20025;-79
2023/12/22 09:27:02;;;;;;;0.10;0.10;;;;;;;3.22;100.00;95229.81;6137717;23;20429;-79
2023/12/22 09:29:48;;;;;;;0.20;0.20;;;;;;;3.29;100.00;95212.78;6125102;23;20045;-78
2023/12/22 09:32:34;;;;;;;0.20;0.20;;;;;;;3.34;100.00;95231.38;6111604;23;20021;-79
2023/12/22 09:35:21;;;;;;;0.20;0.20;;;;;;;3.31;100.00;95229.22;6112242;23;20022;-79
2023/12/22 09:38:14;;;;;;;0.22;0.22;;;;;;;3.41;100.00;95241.84;6109627;23;20365;-78
2023/12/22 09:41:01;;;;;;;0.20;0.20;;;;;;;3.51;100.00;95212.16;6117425;23;20033;-79
2023/12/22 09:43:49;;;;;;;0.20;0.20;;;;;;;3.57;100.00;95208.56;6136675;23;20056;-79
2023/12/22 09:46:35;;;;;;;0.20;0.20;;;;;;;3.61;100.00;95220.31;6138723;23;20053;-79
2023/12/22 09:49:29;;;;;;;0.20;0.20;;;;;;;3.73;100.00;95217.59;6136724;23;20025;-79
2023/12/22 09:52:16;;;;;;;0.20;0.20;;;;;;;3.79;100.00;95206.09;6138681;23;20710;-79
2023/12/22 09:55:03;;;;;;;0.20;0.20;;;;;;;3.78;100.00;95204.47;6137432;23;20017;-78
2023/12/22 09:57:51;;;;;;;0.20;0.20;;;;;;;3.80;100.00;95194.47;6137813;23;20065;-79
2023/12/22 10:00:38;;;;;;;0.30;0.30;;;;;;;3.83;100.00;95186.06;6137722;23;20515;-79
2023/12/22 10:03:25;;;;;;;0.20;0.20;;;;;;;3.86;100.00;95185.56;6136973;23;20025;-79
2023/12/22 10:06:11;;;;;;;0.30;0.30;;;;;;;3.90;100.00;95181.44;6135177;23;20028;-79
2023/12/22 10:09:00;;;;;;;0.20;0.20;;;;;;;3.90;100.00;95197.31;6136687;23;20452;-79
2023/12/22 10:11:52;;;;;;;0.28;0.28;;;;;;;3.99;100.00;95192.44;6138243;23;20107;-78
2023/12/22 10:14:39;;;;;;;0.20;0.20;;;;;;;3.99;100.00;95181.84;6138126;23;20025;-79
2023/12/22 10:17:25;;;;;;;0.20;0.20;;;;;;;4.02;100.00;95179.50;6137975;23;20021;-80
2023/12/22 10:20:11;;;;;;;0.30;0.30;;;;;;;4.08;100.00;95188.34;6138174;23;20550;-80
2023/12/22 10:22:57;;;;;;;0.28;0.28;;;;;;;4.06;100.00;95167.41;6137379;23;20029;-79
2023/12/22 10:25:43;;;;;;;0.22;0.22;;;;;;;4.12;100.00;95174.38;6134775;23;20420;-80
2023/12/22 10:28:29;;;;;;;0.20;0.20;;;;;;;4.13;100.00;95149.53;6137940;23;20053;-79
2023/12/22 10:31:15;;;;;;;0.20;0.20;;;;;;;4.15;100.00;95152.75;6136033;23;20343;-79
2023/12/22 10:34:01;;;;;;;0.30;0.30;;;;;;;4.19;100.00;95153.06;6137926;23;20026;-80
2023/12/22 10:36:47;;;;;;;0.30;0.30;;;;;;;4.22;100.00;95143.84;6135071;23;20367;-79
2023/12/22 10:39:33;;;;;;;0.25;0.25;;;;;;;4.24;100.00;95149.69;6097805;23;20096;-80
2023/12/22 10:42:19;;;;;;;0.20;0.20;;;;;;;4.25;100.00;95130.13;6128033;23;20013;-79
2023/12/22 10:45:06;;;;;;;0.20;0.20;;;;;;;4.27;100.00;95131.47;6135352;23;20026;-79
2023/12/22 10:47:53;;;;;;;0.10;0.10;;;;;;;4.32;100.00;95138.72;6137313;23;20021;-78
2023/12/22 10:50:40;;;;;;;0.20;0.20;;;;;;;4.39;100.00;95124.25;6137977;23;20025;-79
2023/12/22 10:53:29;;;;;;;0.20;0.20;;;;;;;4.40;100.00;95114.47;6137625;23;20069;-78
2023/12/22 10:56:15;;;;;;;0.20;0.20;;;;;;;4.46;100.00;95119.59;6135922;23;20443;-79
2023/12/22 10:59:02;;;;;;;0.20;0.20;;;;;;;4.50;100.00;95111.97;6135892;23;20021;-78
2023/12/22 11:01:51;;;;;;;0.20;0.20;;;;;;;4.49;100.00;95102.41;6136689;23;20770;-79
2023/12/22 11:04:38;;;;;;;0.20;0.20;;;;;;;4.46;100.00;95121.44;6136809;23;20510;-78
2023/12/22 11:07:27;;;;;;;0.20;0.20;;;;;;;4.44;100.00;95105.81;6137961;23;20660;-78
2023/12/22 11:10:18;;;;;;;0.20;0.20;;;;;;;4.40;100.00;95111.81;6138101;23;20048;-79
2023/12/22 11:13:04;;;;;;;0.28;0.28;;;;;;;4.39;100.00;95102.28;6137250;23;20026;-78
2023/12/22 11:15:53;;;;;;;0.30;0.30;;;;;;;4.42;100.00;95093.81;6138456;23;20045;-79
2023/12/22 11:18:40;;;;;;;0.22;0.20;;;;;;;4.44;100.00;95086.47;6136962;23;20022;-79
2023/12/22 11:21:27;;;;;;;0.25;0.25;;;;;;;4.48;100.00;95087.56;6136784;23;20704;-79
2023/12/22 11:24:14;;;;;;;0.20;0.20;;;;;;;4.47;100.00;95067.41;6136968;23;20033;-78
2023/12/22 11:27:02;;;;;;;0.30;0.30;;;;;;;4.50;100.00;95072.22;6137985;23;20367;-78
2023/12/22 11:29:49;;;;;;;0.22;0.20;;;;;;;4.46;100.00;95079.06;6137190;23;20025;-78
2023/12/22 11:32:38;;;;;;;0.20;0.20;;;;;;;4.44;100.00;95070.56;6136503;23;20083;-79
2023/12/22 11:35:24;;;;;;;0.20;0.20;;;;;;;4.48;100.00;95076.97;6137169;23;20412;-78
2023/12/22 11:38:11;;;;;;;0.20;0.20;;;;;;;4.48;100.00;95063.72;6136792;23;20032;-78
2023/12/22 11:41:00;;;;;;;0.17;0.17;;;;;;;4.53;100.00;95069.09;6099539;22;20025;-79
2023/12/22 11:43:47;;;;;;;0.20;0.20;;;;;;;4.55;100.00;95077.59;6127195;23;20026;-79
2023/12/22 11:46:34;;;;;;;0.20;0.20;;;;;;;4.61;100.00;95065.22;6133355;23;20029;-78
2023/12/22 11:49:31;;;;;;;0.20;0.20;;;;;;;4.59;100.00;95062.84;6135756;23;20088;-79
2023/12/22 11:52:18;;;;;;;0.20;0.20;;;;;;;4.71;100.00;95074.09;6136147;23;20096;-79
2023/12/22 11:55:04;;;;;;;0.20;0.20;;;;;;;4.78;100.00;95073.94;6135330;23;20124;-78
2023/12/22 11:57:50;;;;;;;0.30;0.30;;;;;;;4.79;100.00;95058.84;6135686;23;20021;-79
2023/12/22 12:00:36;;;;;;;0.25;0.25;;;;;;;4.79;100.00;95058.84;6135346;23;20093;-78
2023/12/22 12:03:22;;;;;;;0.17;0.17;;;;;;;4.76;100.00;95060.13;6134106;23;20025;-78
2023/12/22 12:06:30;;;;;;;0.30;0.30;;;;;;;4.80;100.00;95050.63;6136783;23;20017;-78
2023/12/22 12:09:53;;;;;;;0.20;0.20;;;;;;;4.79;100.00;95040.28;6135618;23;20032;-80
2023/12/22 12:12:39;;;;;;;0.30;0.30;;;;;;;4.78;100.00;95059.88;6135333;23;20021;-80
2023/12/22 12:15:26;;;;;;;0.20;0.20;;;;;;;4.81;100.00;95054.88;6134566;23;20025;-78
2023/12/22 12:18:12;;;;;;;0.22;0.22;;;;;;;4.89;100.00;95058.94;6135659;23;20026;-78
2023/12/22 12:20:58;;;;;;;0.20;0.20;;;;;;;4.94;100.00;95090.84;6136076;23;20025;-77
2023/12/22 12:23:44;;;;;;;0.20;0.20;;;;;;;4.94;100.00;95061.69;6134795;23;20087;-78
2023/12/22 12:26:32;;;;;;;0.20;0.20;;;;;;;4.99;100.00;95051.16;6135443;23;20021;-78
2023/12/22 12:29:20;;;;;;;0.20;0.20;;;;;;;4.99;100.00;95088.25;6135968;23;20022;-78
2023/12/22 12:32:06;;;;;;;0.20;0.20;;;;;;;5.00;100.00;95058.84;6135158;23;20029;-78
2023/12/22 12:34:52;;;;;;;0.10;0.10;;;;;;;5.01;100.00;95057.00;6133473;23;20017;-77
2023/12/22 12:37:39;;;;;;;0.10;0.10;;;;;;;5.01;100.00;95041.09;6135899;23;20032;-79
2023/12/22 12:40:29;;;;;;;0.20;0.20;;;;;;;5.01;100.00;95057.78;6099193;23;20021;-79
2023/12/22 12:43:15;;;;;;;0.20;0.20;;;;;;;5.01;100.00;95041.09;6133714;23;20025;-79
2023/12/22 12:46:05;;;;;;;0.20;0.20;;;;;;;4.97;100.00;95047.91;6135827;23;20463;-78
2023/12/22 12:49:05;;;;;;;0.20;0.20;;;;;;;5.01;100.00;95022.53;6135107;23;20612;-79
2023/12/22 12:51:51;;;;;;;0.20;0.20;;;;;;;5.03;100.00;95038.97;6135951;23;20068;-78
2023/12/22 12:54:37;;;;;;;0.20;0.20;;;;;;;4.99;100.00;95037.88;6135630;23;20479;-79
2023/12/22 12:57:25;;;;;;;0.22;0.22;;;;;;;5.10;100.00;95062.66;6134061;23;20713;-79
2023/12/22 13:00:12;;;;;;;0.20;0.20;;;;;;;5.13;100.00;95099.28;6136538;23;20076;-79
2023/12/22 13:03:04;;;;;;;0.22;0.22;;;;;;;5.16;100.00;95057.16;6136397;23;20024;-78
2023/12/22 13:05:50;;;;;;;0.20;0.20;;;;;;;5.21;100.00;95043.97;6136385;23;20025;-79